createdAt,value
2019-04-11T00:01:51.843Z,72.3
2019-04-11T00:03:22.648Z,72.64
2019-04-11T00:04:54.832Z,72.93
2019-04-11T00:06:25.848Z,72.89
2019-04-11T00:07:54.687Z,72.88
2019-04-11T00:09:25.082Z,73.27
2019-04-11T00:10:55.693Z,73.56
2019-04-11T00:12:26.424Z,73.64
2019-04-11T00:13:57.920Z,73.43
2019-04-11T00:15:26.772Z,73.17
2019-04-11T00:16:55.612Z,73.08
2019-04-11T00:18:27.191Z,73.14
2019-04-11T00:19:58.008Z,73.38
2019-04-11T00:21:28.966Z,73.64
2019-04-11T00:22:57.878Z,74.32
2019-04-11T00:24:27.359Z,74.83
2019-04-11T00:25:58.158Z,75.35
2019-04-11T00:27:26.930Z,75.83
2019-04-11T00:28:56.404Z,75.97
2019-04-11T00:30:26.360Z,75.99
2019-04-11T00:31:58.377Z,75.6
2019-04-11T00:33:28.292Z,75.61
2019-04-11T00:34:57.564Z,75.46
2019-04-11T00:36:28.596Z,75.56
2019-04-11T00:37:57.327Z,75.77
2019-04-11T00:39:27.979Z,76.1
2019-04-11T00:40:57.760Z,76.37
2019-04-11T00:42:26.543Z,76.82
2019-04-11T00:43:56.861Z,77.07
2019-04-11T00:45:27.731Z,76.84
2019-04-11T00:46:56.541Z,77.01
2019-04-11T00:48:26.050Z,77.12
2019-04-11T00:49:56.920Z,77.36
2019-04-11T00:51:25.898Z,77.45
2019-04-11T00:52:55.912Z,77.18
2019-04-11T00:54:26.982Z,77.34
2019-04-11T00:55:56.896Z,77.52
2019-04-11T00:57:26.126Z,77.77
2019-04-11T00:58:56.245Z,78.25
2019-04-11T01:00:27.292Z,78.18
2019-04-11T01:01:59.042Z,78.24
2019-04-11T01:03:30.600Z,78.46
2019-04-11T01:04:59.452Z,78.06
2019-04-11T01:06:28.293Z,78.06
2019-04-11T01:07:59.770Z,78
2019-04-11T01:09:30.745Z,77.66
2019-04-11T01:11:00.605Z,77.84
2019-04-11T01:12:29.899Z,77.94
2019-04-11T01:14:01.700Z,77.98
2019-04-11T01:15:31.585Z,78.02
2019-04-11T01:17:01.294Z,77.92
2019-04-11T01:18:31.091Z,77.78
2019-04-11T01:20:00.694Z,78.14
2019-04-11T01:21:32.552Z,78.41
2019-04-11T01:23:02.933Z,78.43
2019-04-11T01:24:33.793Z,78.37
2019-04-11T01:26:03.415Z,78.49
2019-04-11T01:27:34.289Z,78.83
2019-04-11T01:29:04.167Z,78.83
2019-04-11T01:30:34.372Z,78.97
2019-04-11T01:32:06.681Z,78.77
2019-04-11T01:33:36.107Z,78.84
2019-04-11T01:35:04.990Z,78.84
2019-04-11T01:36:35.436Z,78.56
2019-04-11T01:38:06.313Z,78.66
2019-04-11T01:39:35.301Z,78.79
2019-04-11T01:41:04.673Z,79.01
2019-04-11T01:42:33.664Z,79.16
2019-04-11T01:44:09.132Z,79.1
2019-04-11T01:45:41.523Z,78.82
2019-04-11T01:47:10.957Z,79
2019-04-11T01:48:41.840Z,79.27
2019-04-11T01:50:10.709Z,79.47
2019-04-11T01:51:40.228Z,79.25
2019-04-11T01:53:09.409Z,79.32
2019-04-11T01:54:38.134Z,79.13
2019-04-11T01:56:09.498Z,79.15
2019-04-11T01:57:40.379Z,79.22
2019-04-11T01:59:11.220Z,79.23
2019-04-11T02:00:40.119Z,79.19
2019-04-11T02:02:09.751Z,79.23
2019-04-11T02:03:39.520Z,79.39
2019-04-11T02:05:10.628Z,79.26
2019-04-11T02:06:40.502Z,79.29
2019-04-11T02:08:09.438Z,79.26
2019-04-11T02:09:38.206Z,79.3
2019-04-11T02:11:09.754Z,79.35
2019-04-11T02:12:39.550Z,79.5
2019-04-11T02:14:22.543Z,79.32
2019-04-11T02:15:58.299Z,79.34
2019-04-11T02:17:27.608Z,79.54
2019-04-11T02:18:57.338Z,79.59
2019-04-11T02:20:29.251Z,79.49
2019-04-11T02:22:00.209Z,79.2
2019-04-11T02:23:29.489Z,79.17
2019-04-11T02:25:00.728Z,78.99
2019-04-11T02:26:31.623Z,79.05
2019-04-11T02:28:01.317Z,79.1
2019-04-11T02:29:30.854Z,79.42
2019-04-11T02:31:09.144Z,79.19
2019-04-11T02:32:44.519Z,79.24
2019-04-11T02:34:16.145Z,79.34
2019-04-11T02:35:49.716Z,79.19
2019-04-11T02:37:22.457Z,79.18
2019-04-11T02:39:14.862Z,79.25
2019-04-11T02:40:50.165Z,79.16
2019-04-11T02:42:23.528Z,79.03
2019-04-11T02:44:01.048Z,78.93
2019-04-11T02:46:11.250Z,78.79
2019-04-11T02:47:56.574Z,78.95
2019-04-11T02:49:28.079Z,79.05
2019-04-11T02:51:00.820Z,79.02
2019-04-11T02:52:35.525Z,79.23
2019-04-11T02:54:07.836Z,79.31
2019-04-11T02:55:38.704Z,79.31
2019-04-11T02:57:11.580Z,79.18
2019-04-11T02:58:46.970Z,79.04
2019-04-11T03:00:21.080Z,79.02
2019-04-11T03:01:53.187Z,79.18
2019-04-11T03:03:25.515Z,79.33
2019-04-11T03:04:56.849Z,79.26
2019-04-11T03:06:28.618Z,79.22
2019-04-11T03:08:11.331Z,79.02
2019-04-11T03:09:48.960Z,79.17
2019-04-11T03:11:25.581Z,79.21
2019-04-11T03:12:58.962Z,79.13
2019-04-11T03:15:19.761Z,79.04
2019-04-11T03:17:29.382Z,79.16
2019-04-11T03:19:58.959Z,79.21
2019-04-11T03:21:46.354Z,79.39
2019-04-11T03:23:25.023Z,79.65
2019-04-11T03:25:00.583Z,79.61
2019-04-11T03:26:31.341Z,79.56
2019-04-11T03:28:02.975Z,79.6
2019-04-11T03:29:37.986Z,79.55
2019-04-11T03:34:11.737Z,79.49
2019-04-11T03:37:58.186Z,79.49
2019-04-11T03:43:01.068Z,79.62
2019-04-11T03:45:25.213Z,79.83
2019-04-11T03:47:57.257Z,79.55
2019-04-11T03:50:03.627Z,79.71
2019-04-11T03:51:40.830Z,79.79
2019-04-11T03:53:14.688Z,79.5
2019-04-11T03:54:48.090Z,79.67
2019-04-11T03:56:22.217Z,79.47
2019-04-11T03:57:59.284Z,79.48
2019-04-11T03:59:36.102Z,79.75
2019-04-11T04:01:13.814Z,79.73
2019-04-11T04:02:47.263Z,79.75
2019-04-11T04:04:26.111Z,79.67
2019-04-11T04:06:01.735Z,79.6
2019-04-11T04:07:34.050Z,79.78
2019-04-11T04:09:04.200Z,79.94
2019-04-11T04:10:36.026Z,79.74
2019-04-11T04:12:07.867Z,79.83
2019-04-11T04:13:40.547Z,79.61
2019-04-11T04:15:55.244Z,79.7
2019-04-11T04:17:33.115Z,79.67
2019-04-11T04:19:05.592Z,79.6
2019-04-11T04:20:37.196Z,79.67
2019-04-11T04:22:08.226Z,79.87
2019-04-11T04:23:38.787Z,79.83
2019-04-11T04:25:12.496Z,79.96
2019-04-11T04:26:44.368Z,80.03
2019-04-11T04:28:16.635Z,80.15
2019-04-11T04:29:57.384Z,79.91
2019-04-11T04:31:28.867Z,80
2019-04-11T04:33:00.900Z,79.88
2019-04-11T04:34:34.374Z,80.02
2019-04-11T04:36:13.756Z,80
2019-04-11T04:37:49.201Z,80.01
2019-04-11T04:39:19.940Z,80.34
2019-04-11T04:41:41.207Z,80.43
2019-04-11T04:43:16.727Z,80.39
2019-04-11T04:44:51.173Z,80.24
2019-04-11T04:47:13.526Z,80.2
2019-04-11T04:48:51.742Z,80.25
2019-04-11T04:50:24.542Z,80.33
2019-04-11T04:51:56.205Z,80.64
2019-04-11T04:53:30.519Z,80.58
2019-04-11T04:55:06.331Z,80.51
2019-04-11T04:56:42.899Z,80.34
2019-04-11T04:58:20.310Z,80.62
2019-04-11T04:59:53.398Z,80.52
2019-04-11T05:01:24.138Z,80.5
2019-04-11T05:02:58.865Z,80.33
2019-04-11T05:04:31.914Z,80.59
2019-04-11T05:06:04.307Z,80.35
2019-04-11T05:07:44.765Z,80.45
2019-04-11T05:09:15.921Z,80.45
2019-04-11T05:10:48.751Z,80.51
2019-04-11T05:12:22.810Z,80.56
2019-04-11T05:13:58.824Z,80.69
2019-04-11T05:15:29.416Z,80.71
2019-04-11T05:17:00.703Z,80.76
2019-04-11T05:18:32.244Z,80.86
2019-04-11T05:20:03.099Z,80.8
2019-04-11T05:21:33.287Z,80.71
2019-04-11T05:23:04.454Z,80.61
2019-04-11T05:24:34.938Z,80.68
2019-04-11T05:26:06.995Z,80.66
2019-04-11T05:27:37.961Z,80.67
2019-04-11T05:29:09.146Z,80.5
2019-04-11T05:30:39.994Z,80.45
2019-04-11T05:32:11.460Z,80.44
2019-04-11T05:33:42.142Z,80.38
2019-04-11T05:35:12.058Z,80.34
2019-04-11T05:36:42.969Z,80.21
2019-04-11T05:38:12.678Z,80.16
2019-04-11T05:39:42.557Z,80.24
2019-04-11T05:41:15.662Z,80
2019-04-11T05:42:54.291Z,79.94
2019-04-11T05:44:25.327Z,80.02
2019-04-11T05:45:58.690Z,80.13
2019-04-11T05:47:29.805Z,79.88
2019-04-11T05:49:05.603Z,79.7
2019-04-11T05:50:36.305Z,79.72
2019-04-11T05:52:06.318Z,79.66
2019-04-11T05:53:38.906Z,79.53
2019-04-11T05:55:13.877Z,79.38
2019-04-11T05:56:43.879Z,79.45
2019-04-11T05:58:17.934Z,79.21
2019-04-11T05:59:55.049Z,79.02
2019-04-11T06:01:29.181Z,78.9
2019-04-11T06:02:59.822Z,78.74
2019-04-11T06:04:32.511Z,78.75
2019-04-11T06:06:05.046Z,78.57
2019-04-11T06:07:42.893Z,78.49
2019-04-11T06:09:16.498Z,78.42
2019-04-11T06:10:48.609Z,77.99
2019-04-11T06:12:17.323Z,77.77
2019-04-11T06:13:49.010Z,77.59
2019-04-11T06:15:22.727Z,77.51
2019-04-11T06:16:59.290Z,77.15
2019-04-11T06:18:44.677Z,76.76
2019-04-11T06:20:14.583Z,76.68
2019-04-11T06:21:44.407Z,76.37
2019-04-11T06:23:13.168Z,76.41
2019-04-11T06:24:42.802Z,76.25
2019-04-11T06:26:14.903Z,76.02
2019-04-11T06:27:45.820Z,75.81
2019-04-11T06:29:31.138Z,75.38
2019-04-11T06:31:01.147Z,75.27
2019-04-11T06:32:32.047Z,75.13
2019-04-11T06:34:02.046Z,74.93
2019-04-11T06:35:32.465Z,74.78
2019-04-11T06:37:03.710Z,74.26
2019-04-11T06:38:32.615Z,73.99
2019-04-11T06:40:04.339Z,73.69
2019-04-11T06:41:33.166Z,73.61
2019-04-11T06:43:04.901Z,73.05
2019-04-11T06:44:34.416Z,73.14
2019-04-11T06:46:03.176Z,72.88
2019-04-11T06:47:32.927Z,72.52
2019-04-11T06:49:02.607Z,72.44
2019-04-11T06:50:33.604Z,72.44
2019-04-11T06:52:02.852Z,72.2
2019-04-11T06:53:32.348Z,72.06
2019-04-11T06:55:02.906Z,71.73
2019-04-11T06:56:32.961Z,71.2
2019-04-11T06:58:02.875Z,71.13
2019-04-11T06:59:32.548Z,70.62
2019-04-11T07:01:01.522Z,70.4
2019-04-11T07:02:34.226Z,70.31
2019-04-11T07:04:03.238Z,70.09
2019-04-11T07:05:33.274Z,69.91
2019-04-11T07:07:03.013Z,69.64
2019-04-11T07:08:32.290Z,69.32
2019-04-11T07:10:03.905Z,69.26
2019-04-11T07:11:34.215Z,69.32
2019-04-11T07:13:05.692Z,69.06
2019-04-11T07:14:35.600Z,68.63
2019-04-11T07:16:05.793Z,68.59
2019-04-11T07:17:38.691Z,68.42
2019-04-11T07:19:09.283Z,67.9
2019-04-11T07:20:44.170Z,67.89
2019-04-11T07:22:13.890Z,67.38
2019-04-11T07:23:44.961Z,67.5
2019-04-11T07:25:14.776Z,67.04
2019-04-11T07:26:44.050Z,66.77
2019-04-11T07:28:13.006Z,66.35
2019-04-11T07:29:44.013Z,66.13
2019-04-11T07:31:13.106Z,66.23
2019-04-11T07:32:43.000Z,65.68
2019-04-11T07:34:11.728Z,65.12
2019-04-11T07:35:42.188Z,64.09
2019-04-11T07:37:12.810Z,64.62
2019-04-11T07:38:43.899Z,63.84
2019-04-11T07:40:17.484Z,63.52
2019-04-11T07:41:50.103Z,63.54
2019-04-11T07:43:22.769Z,62.53
2019-04-11T07:44:52.388Z,62.45
2019-04-11T07:46:22.358Z,62.14
2019-04-11T07:47:51.246Z,61.73
2019-04-11T07:49:21.082Z,61.86
2019-04-11T07:50:55.496Z,61.66
2019-04-11T07:52:25.491Z,60.74
2019-04-11T07:53:56.957Z,60
2019-04-11T07:55:28.066Z,59.81
2019-04-11T07:56:58.854Z,58.64
2019-04-11T07:58:28.933Z,58.82
2019-04-11T07:59:58.454Z,58.11
2019-04-11T08:01:27.284Z,57.45
2019-04-11T08:02:56.066Z,57.03
2019-04-11T08:04:27.924Z,56.09
2019-04-11T08:05:56.802Z,56.75
2019-04-11T08:07:25.585Z,55.98
2019-04-11T08:08:56.115Z,56.1
2019-04-11T08:10:25.745Z,55.53
2019-04-11T08:11:56.312Z,54.73
2019-04-11T08:13:26.409Z,55.42
2019-04-11T08:14:57.290Z,55.12
2019-04-11T08:16:28.896Z,54.22
2019-04-11T08:17:57.731Z,53.21
2019-04-11T08:19:29.011Z,52.27
2019-04-11T08:20:58.594Z,52.15
2019-04-11T08:22:28.221Z,50.82
2019-04-11T08:23:58.335Z,51.44
2019-04-11T08:25:29.434Z,51.63
2019-04-11T08:26:58.986Z,51.33
2019-04-11T08:28:29.190Z,50.97
2019-04-11T08:29:58.428Z,50.71
2019-04-11T08:31:27.188Z,51.12
2019-04-11T08:32:58.399Z,50.8
2019-04-11T08:34:29.296Z,50.58
2019-04-11T08:35:59.980Z,51.13
2019-04-11T08:37:29.809Z,50.39
2019-04-11T08:38:58.727Z,50.6
2019-04-11T08:40:28.313Z,50.14
2019-04-11T08:41:57.173Z,49.9
2019-04-11T08:43:27.105Z,49.66
2019-04-11T08:44:58.935Z,49.54
2019-04-11T08:46:29.069Z,49.58
2019-04-11T08:48:02.770Z,49.63
2019-04-11T08:49:35.243Z,49.85
2019-04-11T08:51:05.283Z,50.45
2019-04-11T08:52:36.194Z,49.73
2019-04-11T08:54:05.091Z,49.57
2019-04-11T08:55:59.270Z,49.09
2019-04-11T08:57:30.529Z,49.23
2019-04-11T08:59:00.797Z,48.89
2019-04-11T09:00:33.512Z,48.64
2019-04-11T09:02:04.801Z,49.2
2019-04-11T09:03:34.726Z,48.88
2019-04-11T09:05:20.380Z,48.7
2019-04-11T09:06:50.133Z,48.76
2019-04-11T09:08:20.483Z,48.73
2019-04-11T09:09:51.733Z,49.09
2019-04-11T09:11:20.697Z,49.85
2019-04-11T09:12:51.115Z,49.48
2019-04-11T09:14:22.407Z,49.08
2019-04-11T09:15:51.190Z,49.73
2019-04-11T09:17:23.446Z,48.03
2019-04-11T09:18:52.637Z,47.53
2019-04-11T09:20:21.654Z,48
2019-04-11T09:21:52.936Z,47.16
2019-04-11T09:23:23.994Z,46.63
2019-04-11T09:24:54.840Z,47.44
2019-04-11T09:26:23.762Z,47.98
2019-04-11T09:27:55.682Z,48
2019-04-11T09:29:26.290Z,47.64
2019-04-11T09:30:58.118Z,47.79
2019-04-11T09:32:28.643Z,47.1
2019-04-11T09:33:59.644Z,47.29
2019-04-11T09:35:29.184Z,47.48
2019-04-11T09:36:58.528Z,47.07
2019-04-11T09:38:28.637Z,47.16
2019-04-11T09:39:59.496Z,48.02
2019-04-11T09:41:30.353Z,47.07
2019-04-11T09:43:01.961Z,47.16
2019-04-11T09:44:33.020Z,47.19
2019-04-11T09:46:02.995Z,47.44
2019-04-11T09:47:32.753Z,47.49
2019-04-11T09:49:02.667Z,47.1
2019-04-11T09:50:32.356Z,47.01
2019-04-11T09:52:07.624Z,47.22
2019-04-11T09:53:41.141Z,47.48
2019-04-11T09:55:09.886Z,47.25
2019-04-11T09:56:39.807Z,47.51
2019-04-11T09:58:09.142Z,47.37
2019-04-11T09:59:39.459Z,47.37
2019-04-11T10:01:12.562Z,47.08
2019-04-11T10:02:42.535Z,47.31
2019-04-11T10:04:11.658Z,47.23
2019-04-11T10:05:40.855Z,47.26
2019-04-11T10:07:11.328Z,46.86
2019-04-11T10:08:41.847Z,46.56
2019-04-11T10:10:10.950Z,47.07
2019-04-11T10:11:40.314Z,46.56
2019-04-11T10:13:11.003Z,47.42
2019-04-11T10:14:39.983Z,46.27
2019-04-11T10:16:09.856Z,46.38
2019-04-11T10:17:40.381Z,45.89
2019-04-11T10:19:11.816Z,47.21
2019-04-11T10:20:40.730Z,47.41
2019-04-11T10:22:11.187Z,47.35
2019-04-11T10:23:41.148Z,46.35
2019-04-11T10:25:10.870Z,45.91
2019-04-11T10:26:40.515Z,46.61
2019-04-11T10:28:11.338Z,46.41
2019-04-11T10:29:41.940Z,46.07
2019-04-11T10:31:12.841Z,46.36
2019-04-11T10:32:41.564Z,46.32
2019-04-11T10:34:11.414Z,46.51
2019-04-11T10:35:40.936Z,45.79
2019-04-11T10:37:09.918Z,45.85
2019-04-11T10:38:40.574Z,45.69
2019-04-11T10:40:10.329Z,45.89
2019-04-11T10:41:40.232Z,45.68
2019-04-11T10:43:09.984Z,45.11
2019-04-11T10:44:40.439Z,45.02
2019-04-11T10:46:11.448Z,45.13
2019-04-11T10:47:41.043Z,45.35
2019-04-11T10:49:11.757Z,45.12
2019-04-11T10:50:42.496Z,45.34
2019-04-11T10:52:12.165Z,44.98
2019-04-11T10:53:41.715Z,45.92
2019-04-11T10:55:13.772Z,45.05
2019-04-11T10:56:43.466Z,44.65
2019-04-11T10:58:13.139Z,45.28
2019-04-11T10:59:43.212Z,44.32
2019-04-11T11:01:12.851Z,44.4
2019-04-11T11:02:42.849Z,44.93
2019-04-11T11:04:13.941Z,45.43
2019-04-11T11:05:43.252Z,44.9
2019-04-11T11:07:13.159Z,45.15
2019-04-11T11:08:43.911Z,45.54
2019-04-11T11:10:12.693Z,45.36
2019-04-11T11:11:42.690Z,45.14
2019-04-11T11:13:11.973Z,45.16
2019-04-11T11:14:43.060Z,45.06
2019-04-11T11:16:14.038Z,45.43
2019-04-11T11:19:19.299Z,44.97
2019-04-11T11:21:07.290Z,45.7
2019-04-11T11:22:44.194Z,45.59
2019-04-11T11:24:15.682Z,45.64
2019-04-11T11:25:51.612Z,45.73
2019-04-11T11:27:22.017Z,45.68
2019-04-11T11:28:52.036Z,46.01
2019-04-11T11:30:21.052Z,45.69
2019-04-11T11:31:52.641Z,45.82
2019-04-11T11:33:26.322Z,44.55
2019-04-11T11:34:59.207Z,45.25
2019-04-11T11:36:38.021Z,44.78
2019-04-11T11:38:09.489Z,44.59
2019-04-11T11:39:39.644Z,44.67
2019-04-11T11:41:09.019Z,44.71
2019-04-11T11:42:38.806Z,43.78
2019-04-11T11:44:09.876Z,43.94
2019-04-11T11:45:44.104Z,43.78
2019-04-11T11:47:17.604Z,44.62
2019-04-11T11:48:54.226Z,44.03
2019-04-11T11:50:26.959Z,44.47
2019-04-11T11:52:02.788Z,44.47
2019-04-11T11:53:35.230Z,44.24
2019-04-11T11:55:06.295Z,44.33
2019-04-11T11:56:35.010Z,45.09
2019-04-11T11:58:04.477Z,44.67
2019-04-11T11:59:36.652Z,43.76
2019-04-11T12:01:09.810Z,43.66
2019-04-11T12:02:39.898Z,43.15
2019-04-11T12:04:10.902Z,43.32
2019-04-11T12:05:53.388Z,43.39
2019-04-11T12:07:23.253Z,43.86
2019-04-11T12:08:54.254Z,43.38
2019-04-11T12:10:24.145Z,43.75
2019-04-11T12:11:57.051Z,43.79
2019-04-11T12:13:28.429Z,43.72
2019-04-11T12:14:57.184Z,43.85
2019-04-11T12:16:28.125Z,43.45
2019-04-11T12:17:57.749Z,43.46
2019-04-11T12:19:49.200Z,44.39
2019-04-11T12:21:31.804Z,43.45
2019-04-11T12:23:01.295Z,43.28
2019-04-11T12:24:30.386Z,44.34
2019-04-11T12:25:59.093Z,42.97
2019-04-11T12:27:29.232Z,42.44
2019-04-11T12:28:59.829Z,42.46
2019-04-11T12:30:37.496Z,41.78
2019-04-11T12:32:06.396Z,42.26
2019-04-11T12:33:35.973Z,42.37
2019-04-11T12:35:06.270Z,42.36
2019-04-11T12:36:43.532Z,42.69
2019-04-11T12:38:16.368Z,42.73
2019-04-11T12:39:45.168Z,43.22
2019-04-11T12:41:14.771Z,42.85
2019-04-11T12:42:43.490Z,42.32
2019-04-11T12:44:12.285Z,42.76
2019-04-11T12:45:41.009Z,42.68
2019-04-11T12:47:12.778Z,42.87
2019-04-11T12:48:41.806Z,42.36
2019-04-11T12:50:10.605Z,41.53
2019-04-11T12:51:39.578Z,41.58
2019-04-11T12:53:09.441Z,42.15
2019-04-11T12:54:39.087Z,42.52
2019-04-11T12:56:08.448Z,42.2
2019-04-11T12:57:37.278Z,41.75
2019-04-11T12:59:06.066Z,41.57
2019-04-11T13:00:34.852Z,41.57
2019-04-11T13:02:04.457Z,41.6
2019-04-11T13:03:33.176Z,41.38
2019-04-11T13:05:01.979Z,41.35
2019-04-11T13:06:40.208Z,41.09
2019-04-11T13:08:08.930Z,41.48
2019-04-11T13:09:37.647Z,41.51
2019-04-11T13:11:06.366Z,42.15
2019-04-11T13:12:35.086Z,41.64
2019-04-11T13:14:03.807Z,41.86
2019-04-11T13:15:32.533Z,42.19
2019-04-11T13:17:01.257Z,41.96
2019-04-11T13:18:30.372Z,41.79
2019-04-11T13:20:09.732Z,41.11
2019-04-11T13:21:38.536Z,40.6
2019-04-11T13:23:08.208Z,40.96
2019-04-11T13:24:36.925Z,40.96
2019-04-11T13:26:06.367Z,40.54
2019-04-11T13:27:35.164Z,40.44
2019-04-11T13:29:03.884Z,40.61
2019-04-11T13:30:33.582Z,41.07
2019-04-11T13:32:03.338Z,41.31
2019-04-11T13:33:33.815Z,41.28
2019-04-11T13:35:02.638Z,41.12
2019-04-11T13:36:31.490Z,41.46
2019-04-11T13:38:00.214Z,41.11
2019-04-11T13:39:28.929Z,41.09
2019-04-11T13:40:57.668Z,40.92
2019-04-11T13:42:26.461Z,40.6
2019-04-11T13:43:55.169Z,40.6
2019-04-11T13:45:23.903Z,41.16
2019-04-11T13:46:52.694Z,40.75
2019-04-11T13:48:21.413Z,40.79
2019-04-11T13:49:50.137Z,40.27
2019-04-11T13:51:20.697Z,41.02
2019-04-11T13:52:49.411Z,40.67
2019-04-11T13:54:18.131Z,40.3
2019-04-11T13:55:47.415Z,40.86
2019-04-11T13:57:17.486Z,40.55
2019-04-11T13:58:46.227Z,40.48
2019-04-11T14:00:15.810Z,40.74
2019-04-11T14:01:45.411Z,39.7
2019-04-11T14:03:15.007Z,39.64
2019-04-11T14:04:44.129Z,40.18
2019-04-11T14:06:12.850Z,39.66
2019-04-11T14:07:41.647Z,39.84
2019-04-11T14:09:10.774Z,39.39
2019-04-11T14:10:39.489Z,39.45
2019-04-11T14:12:10.698Z,39.95
2019-04-11T14:13:40.467Z,39.74
2019-04-11T14:15:11.833Z,40.19
2019-04-11T14:16:42.218Z,39.96
2019-04-11T14:18:12.382Z,39.81
2019-04-11T14:19:42.158Z,39.13
2019-04-11T14:21:15.109Z,38.9
2019-04-11T14:22:44.259Z,38.95
2019-04-11T14:24:16.612Z,38.48
2019-04-11T14:25:45.348Z,38.26
2019-04-11T14:27:14.128Z,38.19
2019-04-11T14:28:42.937Z,38.43
2019-04-11T14:30:11.645Z,38.47
2019-04-11T14:31:40.889Z,38.67
2019-04-11T14:33:10.550Z,38.5
2019-04-11T14:34:40.544Z,38.97
2019-04-11T14:36:09.837Z,38.62
2019-04-11T14:37:43.814Z,38.84
2019-04-11T14:39:12.608Z,39.57
2019-04-11T14:40:42.761Z,38.8
2019-04-11T14:42:12.772Z,39.06
2019-04-11T14:43:46.445Z,38.34
2019-04-11T14:45:15.342Z,39
2019-04-11T14:46:45.009Z,39.35
2019-04-11T14:48:15.736Z,39.25
2019-04-11T14:49:46.377Z,38.45
2019-04-11T14:51:16.972Z,38.98
2019-04-11T14:52:47.391Z,38.66
2019-04-11T14:54:18.646Z,38.97
2019-04-11T14:55:49.605Z,38.48
2019-04-11T14:57:18.369Z,38.81
2019-04-11T14:58:47.166Z,38.65
2019-04-11T15:00:16.052Z,38.27
2019-04-11T15:01:44.860Z,38.85
2019-04-11T15:03:13.573Z,38.61
2019-04-11T15:04:44.774Z,38.37
2019-04-11T15:06:15.422Z,38
2019-04-11T15:07:46.938Z,37.99
2019-04-11T15:09:17.813Z,37.68
2019-04-11T15:10:48.930Z,38.39
2019-04-11T15:12:22.852Z,38.05
2019-04-11T15:13:53.728Z,37.93
2019-04-11T15:15:24.471Z,37.19
2019-04-11T15:16:53.651Z,37.99
2019-04-11T15:18:27.624Z,38.51
2019-04-11T15:19:56.374Z,38.03
2019-04-11T15:21:26.851Z,37.95
2019-04-11T15:22:55.565Z,37.94
2019-04-11T15:24:25.975Z,37.98
2019-04-11T15:25:55.646Z,38.89
2019-04-11T15:27:25.090Z,38.59
2019-04-11T15:28:53.818Z,38.35
2019-04-11T15:30:22.611Z,38.28
2019-04-11T15:31:51.326Z,38.37
2019-04-11T15:33:20.051Z,38.46
2019-04-11T15:34:48.778Z,38.04
2019-04-11T15:36:17.657Z,38.15
2019-04-11T15:37:46.374Z,37.83
2019-04-11T15:39:15.969Z,38.97
2019-04-11T15:40:45.927Z,38.75
2019-04-11T15:42:16.296Z,39.4
2019-04-11T15:43:48.444Z,39.19
2019-04-11T15:45:19.011Z,39.11
2019-04-11T15:46:48.632Z,38.82
2019-04-11T15:48:23.878Z,38.66
2019-04-11T15:49:52.613Z,38.46
2019-04-11T15:51:21.570Z,38.25
2019-04-11T15:52:50.367Z,38.83
2019-04-11T15:54:19.245Z,38.79
2019-04-11T15:55:48.103Z,38.79
2019-04-11T15:57:18.530Z,39.17
2019-04-11T15:58:48.130Z,39.43
2019-04-11T16:00:19.250Z,39.35
2019-04-11T16:01:48.534Z,39.13
2019-04-11T16:03:17.259Z,39.4
2019-04-11T16:04:45.997Z,39.49
2019-04-11T16:06:15.199Z,39.58
2019-04-11T16:07:43.968Z,39.47
2019-04-11T16:09:16.696Z,39.62
2019-04-11T16:10:47.484Z,39.95
2019-04-11T16:12:17.223Z,40.03
2019-04-11T16:13:46.849Z,39.93
2019-04-11T16:15:17.011Z,40.46
2019-04-11T16:16:47.490Z,40.79
2019-04-11T16:18:16.750Z,40.77
2019-04-11T16:19:48.778Z,40.74
2019-04-11T16:21:25.140Z,40.76
2019-04-11T16:22:56.152Z,40.86
2019-04-11T16:24:28.274Z,41.02
2019-04-11T16:25:57.008Z,40.93
2019-04-11T16:27:25.737Z,41.38
2019-04-11T16:28:56.070Z,41.06
2019-04-11T16:30:24.849Z,41.25
2019-04-11T16:31:53.652Z,41.52
2019-04-11T16:33:22.374Z,41.47
2019-04-11T16:34:58.968Z,41.39
2019-04-11T16:36:32.208Z,41.69
2019-04-11T16:38:05.818Z,41.6
2019-04-11T16:39:34.625Z,41.75
2019-04-11T16:41:03.344Z,41.95
2019-04-11T16:42:32.155Z,42.06
2019-04-11T16:44:02.691Z,41.99
2019-04-11T16:45:31.504Z,41.85
2019-04-11T16:47:00.931Z,42
2019-04-11T16:48:31.174Z,42.16
2019-04-11T16:50:02.060Z,41.8
2019-04-11T16:51:36.383Z,41.83
2019-04-11T16:53:05.171Z,41.6
2019-04-11T16:54:34.544Z,41.97
2019-04-11T16:56:03.256Z,41.82
2019-04-11T16:57:31.965Z,42.18
2019-04-11T16:59:01.574Z,42.31
2019-04-11T17:00:30.539Z,42.15
2019-04-11T17:01:59.513Z,42.05
2019-04-11T17:03:30.850Z,42.14
2019-04-11T17:05:01.339Z,42.61
2019-04-11T17:06:31.584Z,42.76
2019-04-11T17:08:01.727Z,43.05
2019-04-11T17:09:32.291Z,43.38
2019-04-11T17:11:02.618Z,43.84
2019-04-11T17:12:32.218Z,44.08
2019-04-11T17:14:02.922Z,43.87
2019-04-11T17:15:35.654Z,44.48
2019-04-11T17:17:15.782Z,44.64
2019-04-11T17:18:44.620Z,44.71
2019-04-11T17:20:14.212Z,44.86
2019-04-11T17:21:49.122Z,44.67
2019-04-11T17:23:18.290Z,45.09
2019-04-11T17:24:48.882Z,45.27
2019-04-11T17:26:18.524Z,45.42
2019-04-11T17:27:48.224Z,45.52
2019-04-11T17:29:17.409Z,45.25
2019-04-11T17:30:46.134Z,45.24
2019-04-11T17:32:14.880Z,45.76
2019-04-11T17:33:43.737Z,46.04
2019-04-11T17:35:12.446Z,46.12
2019-04-11T17:36:41.186Z,46.4
2019-04-11T17:38:13.004Z,46.32
2019-04-11T17:39:42.375Z,46.41
2019-04-11T17:41:12.246Z,46.3
2019-04-11T17:42:44.663Z,46.39
2019-04-11T17:44:13.808Z,46.64
2019-04-11T17:45:42.608Z,46.9
2019-04-11T17:47:11.424Z,47.05
2019-04-11T17:48:40.122Z,47.02
2019-04-11T17:50:10.052Z,47.02
2019-04-11T17:51:55.910Z,47.49
2019-04-11T17:53:25.665Z,47.5
2019-04-11T17:54:55.001Z,47.73
2019-04-11T17:56:25.722Z,47.71
2019-04-11T17:57:57.945Z,47.62
2019-04-11T17:59:29.320Z,47.55
2019-04-11T18:01:04.829Z,48.01
2019-04-11T18:02:35.414Z,48.1
2019-04-11T18:04:04.211Z,48.08
2019-04-11T18:05:32.927Z,48.28
2019-04-11T18:07:01.983Z,48.51
2019-04-11T18:08:30.766Z,48.63
2019-04-11T18:10:01.649Z,48.66
2019-04-11T18:11:32.127Z,48.49
2019-04-11T18:13:03.727Z,48.49
2019-04-11T18:14:36.140Z,48.66
2019-04-11T18:16:06.768Z,48.82
2019-04-11T18:17:35.787Z,49.01
2019-04-11T18:19:09.896Z,49.3
2019-04-11T18:20:42.123Z,49.41
2019-04-11T18:22:14.539Z,49.73
2019-04-11T18:23:43.247Z,49.8
2019-04-11T18:25:12.685Z,49.69
2019-04-11T18:26:41.408Z,49.79
2019-04-11T18:28:10.127Z,49.94
2019-04-11T18:29:39.727Z,49.65
2019-04-11T18:31:08.468Z,49.89
2019-04-11T18:32:37.169Z,49.56
2019-04-11T18:34:07.579Z,49.69
2019-04-11T18:35:37.510Z,50.12
2019-04-11T18:37:07.735Z,50.13
2019-04-11T18:38:37.569Z,50.23
2019-04-11T18:40:10.619Z,50.32
2019-04-11T18:41:39.488Z,50.66
2019-04-11T18:43:08.216Z,50.2
2019-04-11T18:44:37.605Z,50.42
2019-04-11T18:46:06.373Z,50.73
2019-04-11T18:47:36.074Z,50.87
2019-04-11T18:49:04.850Z,50.69
2019-04-11T18:50:34.052Z,50.84
2019-04-11T18:52:02.864Z,50.94
2019-04-11T18:53:32.464Z,50.93
2019-04-11T18:55:01.171Z,50.94
2019-04-11T18:56:29.889Z,51.26
2019-04-11T18:57:58.692Z,51.05
2019-04-11T18:59:27.413Z,51.39
2019-04-11T19:00:56.127Z,51.04
2019-04-11T19:02:25.737Z,51.44
2019-04-11T19:03:55.328Z,51.56
2019-04-11T19:05:33.728Z,51.64
2019-04-11T19:07:05.271Z,51.74
2019-04-11T19:08:35.264Z,51.8
2019-04-11T19:10:04.144Z,51.88
2019-04-11T19:11:32.876Z,52.06
2019-04-11T19:13:01.808Z,51.73
2019-04-11T19:14:30.583Z,51.82
2019-04-11T19:15:59.328Z,52.08
2019-04-11T19:17:30.731Z,52.25
2019-04-11T19:19:02.403Z,51.98
2019-04-11T19:20:31.254Z,52
2019-04-11T19:22:00.692Z,52.32
2019-04-11T19:23:29.406Z,52.53
2019-04-11T19:24:58.125Z,52.18
2019-04-11T19:26:28.129Z,52.75
2019-04-11T19:27:59.418Z,52.63
2019-04-11T19:29:30.609Z,52.62
2019-04-11T19:31:01.986Z,52.71
2019-04-11T19:32:31.581Z,53.04
2019-04-11T19:34:09.023Z,53.14
2019-04-11T19:35:42.347Z,53.13
2019-04-11T19:37:12.885Z,53.37
2019-04-11T19:38:44.039Z,53.09
2019-04-11T19:40:17.230Z,53.25
2019-04-11T19:41:48.732Z,53.69
2019-04-11T19:43:19.776Z,53.66
2019-04-11T19:44:50.527Z,53.61
2019-04-11T19:46:21.120Z,53.57
2019-04-11T19:47:53.146Z,53.91
2019-04-11T19:49:22.776Z,53.86
2019-04-11T19:50:51.490Z,53.54
2019-04-11T19:52:20.220Z,53.67
2019-04-11T19:53:49.651Z,53.94
2019-04-11T19:55:19.362Z,53.87
2019-04-11T19:56:48.133Z,53.91